sensor_id;sensor_type;location;lat;lon;timestamp;pressure;altitude;pressure_sealevel;temperature;humidity
12213;BME280;6169;44.158;22.788;2024-01-06T00:03:22;100838.50;;;4.20;82.41
12213;BME280;6169;44.158;22.788;2024-01-06T00:08:26;100833.69;;;4.15;82.54
12213;BME280;6169;44.158;22.788;2024-01-06T00:13:28;100823.16;;;4.20;82.10
12213;BME280;6169;44.158;22.788;2024-01-06T00:18:30;100824.03;;;4.27;81.96
12213;BME280;6169;44.158;22.788;2024-01-06T00:23:34;100827.72;;;4.20;82.57
12213;BME280;6169;44.158;22.788;2024-01-06T00:28:36;100825.91;;;4.27;82.41
12213;BME280;6169;44.158;22.788;2024-01-06T00:33:38;100830.50;;;4.05;82.83
12213;BME280;6169;44.158;22.788;2024-01-06T00:38:41;100834.47;;;4.09;81.48
12213;BME280;6169;44.158;22.788;2024-01-06T00:43:43;100831.34;;;4.05;82.22
12213;BME280;6169;44.158;22.788;2024-01-06T00:48:45;100833.66;;;4.08;81.81
12213;BME280;6169;44.158;22.788;2024-01-06T00:53:49;100823.88;;;4.07;81.75
12213;BME280;6169;44.158;22.788;2024-01-06T00:58:51;100819.84;;;3.90;81.73
12213;BME280;6169;44.158;22.788;2024-01-06T01:03:53;100820.81;;;3.82;80.66
12213;BME280;6169;44.158;22.788;2024-01-06T01:08:56;100798.09;;;3.63;81.75
12213;BME280;6169;44.158;22.788;2024-01-06T01:13:59;100803.25;;;3.37;81.79
12213;BME280;6169;44.158;22.788;2024-01-06T01:19:01;100801.53;;;3.08;81.75
12213;BME280;6169;44.158;22.788;2024-01-06T01:24:05;100812.25;;;2.86;81.83
12213;BME280;6169;44.158;22.788;2024-01-06T01:29:07;100808.19;;;3.12;79.52
12213;BME280;6169;44.158;22.788;2024-01-06T01:34:09;100798.56;;;3.03;81.26
12213;BME280;6169;44.158;22.788;2024-01-06T01:39:13;100801.13;;;2.89;80.58
12213;BME280;6169;44.158;22.788;2024-01-06T01:44:16;100792.59;;;2.86;80.85
12213;BME280;6169;44.158;22.788;2024-01-06T01:49:18;100802.81;;;2.75;81.45
12213;BME280;6169;44.158;22.788;2024-01-06T01:54:22;100783.38;;;2.95;80.34
12213;BME280;6169;44.158;22.788;2024-01-06T01:59:24;100757.06;;;3.12;79.88
12213;BME280;6169;44.158;22.788;2024-01-06T02:04:27;100753.56;;;2.90;78.99
12213;BME280;6169;44.158;22.788;2024-01-06T02:09:30;100740.56;;;2.93;78.69
12213;BME280;6169;44.158;22.788;2024-01-06T02:14:32;100737.72;;;2.80;79.07
12213;BME280;6169;44.158;22.788;2024-01-06T02:19:35;100752.22;;;2.64;78.72
12213;BME280;6169;44.158;22.788;2024-01-06T02:24:38;100764.88;;;2.49;79.02
12213;BME280;6169;44.158;22.788;2024-01-06T02:29:40;100749.09;;;2.61;79.82
12213;BME280;6169;44.158;22.788;2024-01-06T02:34:42;100740.03;;;2.47;79.11
12213;BME280;6169;44.158;22.788;2024-01-06T02:39:46;100734.13;;;2.37;79.62
12213;BME280;6169;44.158;22.788;2024-01-06T02:44:48;100720.28;;;2.55;79.21
12213;BME280;6169;44.158;22.788;2024-01-06T02:49:50;100726.31;;;2.42;77.73
12213;BME280;6169;44.158;22.788;2024-01-06T02:54:53;100720.84;;;2.50;80.15
12213;BME280;6169;44.158;22.788;2024-01-06T02:59:55;100738.56;;;2.29;79.22
12213;BME280;6169;44.158;22.788;2024-01-06T03:04:57;100729.22;;;2.40;79.44
12213;BME280;6169;44.158;22.788;2024-01-06T03:10:01;100720.25;;;2.18;78.03
12213;BME280;6169;44.158;22.788;2024-01-06T03:15:04;100729.59;;;2.22;78.49
12213;BME280;6169;44.158;22.788;2024-01-06T03:20:07;100728.78;;;2.07;79.10
12213;BME280;6169;44.158;22.788;2024-01-06T03:25:11;100710.66;;;2.30;78.76
12213;BME280;6169;44.158;22.788;2024-01-06T03:30:13;100709.03;;;2.15;78.14
12213;BME280;6169;44.158;22.788;2024-01-06T03:35:15;100718.47;;;2.25;78.28
12213;BME280;6169;44.158;22.788;2024-01-06T03:40:19;100724.59;;;2.04;79.05
12213;BME280;6169;44.158;22.788;2024-01-06T03:45:21;100714.59;;;2.13;77.33
12213;BME280;6169;44.158;22.788;2024-01-06T03:50:23;100700.25;;;2.06;79.38
12213;BME280;6169;44.158;22.788;2024-01-06T03:55:26;100709.31;;;2.05;78.43
12213;BME280;6169;44.158;22.788;2024-01-06T04:00:29;100690.09;;;1.72;78.03
12213;BME280;6169;44.158;22.788;2024-01-06T04:05:31;100718.44;;;1.74;76.71
12213;BME280;6169;44.158;22.788;2024-01-06T04:10:34;100716.28;;;1.55;77.37
12213;BME280;6169;44.158;22.788;2024-01-06T04:15:37;100715.63;;;1.53;78.69
12213;BME280;6169;44.158;22.788;2024-01-06T04:20:39;100685.66;;;1.64;78.94
12213;BME280;6169;44.158;22.788;2024-01-06T04:25:42;100684.09;;;1.55;77.35
12213;BME280;6169;44.158;22.788;2024-01-06T04:30:44;100637.22;;;1.28;78.28
12213;BME280;6169;44.158;22.788;2024-01-06T04:35:46;100666.75;;;1.87;77.29
12213;BME280;6169;44.158;22.788;2024-01-06T04:40:50;100659.06;;;1.84;78.30
12213;BME280;6169;44.158;22.788;2024-01-06T04:45:52;100668.22;;;1.60;77.96
12213;BME280;6169;44.158;22.788;2024-01-06T04:50:54;100676.47;;;1.88;76.52
12213;BME280;6169;44.158;22.788;2024-01-06T04:55:58;100675.09;;;1.77;76.83
12213;BME280;6169;44.158;22.788;2024-01-06T05:01:00;100669.53;;;1.64;78.48
12213;BME280;6169;44.158;22.788;2024-01-06T05:06:03;100687.66;;;1.47;77.08
12213;BME280;6169;44.158;22.788;2024-01-06T05:11:06;100692.06;;;1.25;78.16
12213;BME280;6169;44.158;22.788;2024-01-06T05:16:08;100694.91;;;1.47;78.58
12213;BME280;6169;44.158;22.788;2024-01-06T05:21:10;100683.59;;;1.36;77.80
12213;BME280;6169;44.158;22.788;2024-01-06T05:26:14;100686.38;;;1.58;78.86
12213;BME280;6169;44.158;22.788;2024-01-06T05:31:16;100692.66;;;1.50;78.83
12213;BME280;6169;44.158;22.788;2024-01-06T05:36:19;100701.28;;;1.75;77.61
12213;BME280;6169;44.158;22.788;2024-01-06T05:41:23;100684.97;;;1.77;79.63
12213;BME280;6169;44.158;22.788;2024-01-06T05:46:25;100663.22;;;1.86;78.19
12213;BME280;6169;44.158;22.788;2024-01-06T05:51:27;100680.91;;;1.96;78.50
12213;BME280;6169;44.158;22.788;2024-01-06T05:56:30;100674.16;;;1.70;78.67
12213;BME280;6169;44.158;22.788;2024-01-06T06:01:33;100658.97;;;1.62;79.60
12213;BME280;6169;44.158;22.788;2024-01-06T06:06:35;100679.16;;;1.73;79.01
12213;BME280;6169;44.158;22.788;2024-01-06T06:11:39;100691.38;;;1.91;78.69
12213;BME280;6169;44.158;22.788;2024-01-06T06:16:41;100685.16;;;1.90;79.38
12213;BME280;6169;44.158;22.788;2024-01-06T06:21:43;100678.31;;;1.88;79.63
12213;BME280;6169;44.158;22.788;2024-01-06T06:26:47;100681.94;;;1.95;79.78
12213;BME280;6169;44.158;22.788;2024-01-06T06:31:49;100692.03;;;1.93;78.68
12213;BME280;6169;44.158;22.788;2024-01-06T06:36:51;100696.22;;;1.80;80.54
12213;BME280;6169;44.158;22.788;2024-01-06T06:41:54;100701.66;;;1.87;80.51
12213;BME280;6169;44.158;22.788;2024-01-06T06:46:56;100706.56;;;1.98;81.25
12213;BME280;6169;44.158;22.788;2024-01-06T06:51:58;100699.69;;;2.11;80.86
12213;BME280;6169;44.158;22.788;2024-01-06T06:57:02;100693.66;;;2.23;79.22
12213;BME280;6169;44.158;22.788;2024-01-06T07:02:05;100696.81;;;2.12;80.99
12213;BME280;6169;44.158;22.788;2024-01-06T07:07:07;100693.25;;;2.26;80.97
12213;BME280;6169;44.158;22.788;2024-01-06T07:12:11;100696.97;;;2.40;80.51
12213;BME280;6169;44.158;22.788;2024-01-06T07:17:13;100690.59;;;2.63;80.07
12213;BME280;6169;44.158;22.788;2024-01-06T07:22:15;100672.47;;;2.50;79.42
12213;BME280;6169;44.158;22.788;2024-01-06T07:27:20;100681.59;;;2.70;79.10
12213;BME280;6169;44.158;22.788;2024-01-06T07:32:22;100659.22;;;2.70;78.68
12213;BME280;6169;44.158;22.788;2024-01-06T07:37:25;100664.59;;;2.91;79.82
12213;BME280;6169;44.158;22.788;2024-01-06T07:42:29;100669.19;;;2.97;80.42
12213;BME280;6169;44.158;22.788;2024-01-06T07:47:31;100665.28;;;3.00;79.43
12213;BME280;6169;44.158;22.788;2024-01-06T07:52:33;100664.56;;;3.13;79.63
12213;BME280;6169;44.158;22.788;2024-01-06T07:57:36;100655.34;;;3.29;78.77
12213;BME280;6169;44.158;22.788;2024-01-06T08:02:38;100668.94;;;3.20;78.14
12213;BME280;6169;44.158;22.788;2024-01-06T08:07:40;100668.19;;;3.27;80.67
12213;BME280;6169;44.158;22.788;2024-01-06T08:12:44;100668.22;;;3.33;80.50
12213;BME280;6169;44.158;22.788;2024-01-06T08:17:46;100657.47;;;3.68;78.72
12213;BME280;6169;44.158;22.788;2024-01-06T08:22:48;100660.81;;;3.77;78.69
12213;BME280;6169;44.158;22.788;2024-01-06T08:27:52;100666.50;;;3.88;78.53
12213;BME280;6169;44.158;22.788;2024-01-06T08:32:54;100664.56;;;3.76;80.11
12213;BME280;6169;44.158;22.788;2024-01-06T08:37:56;100656.72;;;3.81;79.78
12213;BME280;6169;44.158;22.788;2024-01-06T08:43:00;100661.47;;;3.79;80.35
12213;BME280;6169;44.158;22.788;2024-01-06T08:48:02;100676.78;;;3.78;80.22
12213;BME280;6169;44.158;22.788;2024-01-06T08:53:04;100670.94;;;3.68;79.30
12213;BME280;6169;44.158;22.788;2024-01-06T08:58:08;100673.19;;;3.64;80.43
12213;BME280;6169;44.158;22.788;2024-01-06T09:03:10;100663.72;;;3.75;78.68
12213;BME280;6169;44.158;22.788;2024-01-06T09:08:13;100655.94;;;3.94;79.72
12213;BME280;6169;44.158;22.788;2024-01-06T09:13:17;100653.09;;;4.08;79.97
12213;BME280;6169;44.158;22.788;2024-01-06T09:18:22;100634.91;;;4.24;79.36
12213;BME280;6169;44.158;22.788;2024-01-06T09:23:24;100636.34;;;4.20;77.57
12213;BME280;6169;44.158;22.788;2024-01-06T09:28:28;100628.69;;;4.23;78.36
12213;BME280;6169;44.158;22.788;2024-01-06T09:33:30;100611.34;;;4.39;76.64
12213;BME280;6169;44.158;22.788;2024-01-06T09:38:34;100596.22;;;4.45;76.88
12213;BME280;6169;44.158;22.788;2024-01-06T09:43:38;100599.72;;;4.59;76.99
12213;BME280;6169;44.158;22.788;2024-01-06T09:48:41;100576.53;;;4.71;74.55
12213;BME280;6169;44.158;22.788;2024-01-06T09:53:48;100590.41;;;4.54;75.98
12213;BME280;6169;44.158;22.788;2024-01-06T09:58:52;100568.63;;;4.56;76.47
12213;BME280;6169;44.158;22.788;2024-01-06T10:03:54;100571.34;;;4.56;76.88
12213;BME280;6169;44.158;22.788;2024-01-06T10:08:56;100551.00;;;4.53;78.00
12213;BME280;6169;44.158;22.788;2024-01-06T10:14:00;100571.91;;;4.38;78.81
12213;BME280;6169;44.158;22.788;2024-01-06T10:19:04;100558.66;;;4.70;77.39
12213;BME280;6169;44.158;22.788;2024-01-06T10:24:08;100517.59;;;4.28;78.46
12213;BME280;6169;44.158;22.788;2024-01-06T10:29:13;100543.53;;;4.49;76.08
12213;BME280;6169;44.158;22.788;2024-01-06T10:34:15;100530.44;;;4.66;76.10
12213;BME280;6169;44.158;22.788;2024-01-06T10:39:17;100519.66;;;4.79;75.92
12213;BME280;6169;44.158;22.788;2024-01-06T10:44:21;100524.84;;;4.74;77.84
12213;BME280;6169;44.158;22.788;2024-01-06T10:49:24;100510.91;;;4.84;76.60
12213;BME280;6169;44.158;22.788;2024-01-06T10:54:27;100500.19;;;4.50;79.81
12213;BME280;6169;44.158;22.788;2024-01-06T10:59:33;100506.31;;;4.97;77.82
12213;BME280;6169;44.158;22.788;2024-01-06T11:04:35;100506.91;;;5.19;75.33
12213;BME280;6169;44.158;22.788;2024-01-06T11:09:39;100488.81;;;5.27;75.95
12213;BME280;6169;44.158;22.788;2024-01-06T11:14:45;100424.31;;;5.05;75.10
12213;BME280;6169;44.158;22.788;2024-01-06T11:19:47;100471.53;;;5.34;75.17
12213;BME280;6169;44.158;22.788;2024-01-06T11:24:56;100454.41;;;5.54;75.78
12213;BME280;6169;44.158;22.788;2024-01-06T11:30:01;100453.81;;;5.52;74.72
12213;BME280;6169;44.158;22.788;2024-01-06T11:35:09;100441.44;;;5.69;74.47
12213;BME280;6169;44.158;22.788;2024-01-06T11:40:21;100436.75;;;5.58;74.49
12213;BME280;6169;44.158;22.788;2024-01-06T11:45:25;100419.13;;;5.87;74.21
12213;BME280;6169;44.158;22.788;2024-01-06T11:50:28;100402.06;;;5.86;72.48
12213;BME280;6169;44.158;22.788;2024-01-06T11:55:30;100408.97;;;5.76;71.12
12213;BME280;6169;44.158;22.788;2024-01-06T12:00:35;100404.13;;;5.91;70.30
12213;BME280;6169;44.158;22.788;2024-01-06T12:05:39;100408.16;;;5.75;73.66
12213;BME280;6169;44.158;22.788;2024-01-06T12:10:41;100409.06;;;5.62;72.92
12213;BME280;6169;44.158;22.788;2024-01-06T12:15:45;100401.63;;;5.58;73.75
12213;BME280;6169;44.158;22.788;2024-01-06T12:20:48;100370.72;;;5.79;72.82
12213;BME280;6169;44.158;22.788;2024-01-06T12:25:50;100370.84;;;5.91;72.90
12213;BME280;6169;44.158;22.788;2024-01-06T12:30:53;100369.38;;;6.20;71.26
12213;BME280;6169;44.158;22.788;2024-01-06T12:35:55;100374.72;;;6.01;70.57
12213;BME280;6169;44.158;22.788;2024-01-06T12:40:57;100187.91;;;5.04;70.61
12213;BME280;6169;44.158;22.788;2024-01-06T12:46:01;100373.19;;;5.87;73.10
12213;BME280;6169;44.158;22.788;2024-01-06T12:51:04;100364.41;;;5.60;73.58
12213;BME280;6169;44.158;22.788;2024-01-06T12:56:06;100344.28;;;5.87;71.21
12213;BME280;6169;44.158;22.788;2024-01-06T13:01:10;100328.72;;;5.83;69.98
12213;BME280;6169;44.158;22.788;2024-01-06T13:06:12;100321.59;;;5.63;71.98
12213;BME280;6169;44.158;22.788;2024-01-06T13:11:15;100316.06;;;5.77;73.04
12213;BME280;6169;44.158;22.788;2024-01-06T13:16:18;100332.78;;;5.67;74.19
12213;BME280;6169;44.158;22.788;2024-01-06T13:21:20;100341.69;;;5.74;73.52
12213;BME280;6169;44.158;22.788;2024-01-06T13:26:23;100307.63;;;5.41;75.26
12213;BME280;6169;44.158;22.788;2024-01-06T13:31:26;100336.63;;;5.53;73.71
12213;BME280;6169;44.158;22.788;2024-01-06T13:36:29;100319.81;;;5.51;73.67
12213;BME280;6169;44.158;22.788;2024-01-06T13:41:31;100330.13;;;5.35;74.81
12213;BME280;6169;44.158;22.788;2024-01-06T13:46:35;100334.28;;;5.31;75.38
12213;BME280;6169;44.158;22.788;2024-01-06T13:51:38;100347.94;;;5.05;77.00
12213;BME280;6169;44.158;22.788;2024-01-06T13:56:40;100320.72;;;5.06;77.00
12213;BME280;6169;44.158;22.788;2024-01-06T14:01:43;100296.66;;;5.05;76.49
12213;BME280;6169;44.158;22.788;2024-01-06T14:06:46;100316.31;;;5.12;77.42
12213;BME280;6169;44.158;22.788;2024-01-06T14:11:54;100289.59;;;5.04;77.51
12213;BME280;6169;44.158;22.788;2024-01-06T14:16:58;100311.19;;;5.04;78.50
12213;BME280;6169;44.158;22.788;2024-01-06T14:22:00;100301.06;;;4.92;78.31
12213;BME280;6169;44.158;22.788;2024-01-06T14:27:05;100290.94;;;4.88;78.96
12213;BME280;6169;44.158;22.788;2024-01-06T14:32:08;100295.09;;;4.84;79.67
12213;BME280;6169;44.158;22.788;2024-01-06T14:37:11;100293.88;;;4.80;80.11
12213;BME280;6169;44.158;22.788;2024-01-06T14:42:13;100300.75;;;4.75;79.35
12213;BME280;6169;44.158;22.788;2024-01-06T14:47:18;100307.00;;;4.69;80.11
12213;BME280;6169;44.158;22.788;2024-01-06T14:52:20;100286.25;;;4.70;80.28
12213;BME280;6169;44.158;22.788;2024-01-06T14:57:23;100262.25;;;4.55;80.69
12213;BME280;6169;44.158;22.788;2024-01-06T15:02:26;100263.25;;;4.67;80.49
12213;BME280;6169;44.158;22.788;2024-01-06T15:07:29;100261.00;;;4.58;80.47
12213;BME280;6169;44.158;22.788;2024-01-06T15:12:32;100274.56;;;4.38;80.20
12213;BME280;6169;44.158;22.788;2024-01-06T15:17:35;100287.03;;;4.25;81.34
12213;BME280;6169;44.158;22.788;2024-01-06T15:22:38;100282.88;;;4.36;81.10
12213;BME280;6169;44.158;22.788;2024-01-06T15:27:40;100282.50;;;4.19;81.52
12213;BME280;6169;44.158;22.788;2024-01-06T15:32:44;100276.88;;;4.34;81.05
12213;BME280;6169;44.158;22.788;2024-01-06T15:37:46;100242.25;;;4.31;81.59
12213;BME280;6169;44.158;22.788;2024-01-06T15:42:49;100246.81;;;4.30;80.90
12213;BME280;6169;44.158;22.788;2024-01-06T15:47:52;100242.28;;;4.11;82.06
12213;BME280;6169;44.158;22.788;2024-01-06T15:52:54;100244.59;;;4.01;81.82
12213;BME280;6169;44.158;22.788;2024-01-06T15:57:56;100233.22;;;3.92;82.45
12213;BME280;6169;44.158;22.788;2024-01-06T16:03:00;100226.56;;;4.01;82.10
12213;BME280;6169;44.158;22.788;2024-01-06T16:08:02;100222.66;;;3.97;81.80
12213;BME280;6169;44.158;22.788;2024-01-06T16:13:05;100226.56;;;4.01;81.28
12213;BME280;6169;44.158;22.788;2024-01-06T16:18:09;100218.72;;;3.86;81.57
12213;BME280;6169;44.158;22.788;2024-01-06T16:23:11;100205.66;;;3.90;81.46
12213;BME280;6169;44.158;22.788;2024-01-06T16:28:14;100194.03;;;3.96;81.33
12213;BME280;6169;44.158;22.788;2024-01-06T16:33:17;100210.38;;;4.01;81.29
12213;BME280;6169;44.158;22.788;2024-01-06T16:38:19;100213.75;;;3.83;81.09
12213;BME280;6169;44.158;22.788;2024-01-06T16:43:22;100209.16;;;3.97;80.48
12213;BME280;6169;44.158;22.788;2024-01-06T16:48:25;100213.75;;;3.77;80.68
12213;BME280;6169;44.158;22.788;2024-01-06T16:53:27;100200.91;;;3.79;80.60
12213;BME280;6169;44.158;22.788;2024-01-06T16:58:29;100194.09;;;3.83;80.45
12213;BME280;6169;44.158;22.788;2024-01-06T17:03:33;100198.03;;;3.74;80.76
12213;BME280;6169;44.158;22.788;2024-01-06T17:08:35;100201.16;;;3.64;80.26
12213;BME280;6169;44.158;22.788;2024-01-06T17:13:38;100208.63;;;3.42;81.36
12213;BME280;6169;44.158;22.788;2024-01-06T17:18:42;100189.81;;;3.35;81.57
12213;BME280;6169;44.158;22.788;2024-01-06T17:23:44;100185.25;;;3.36;80.47
12213;BME280;6169;44.158;22.788;2024-01-06T17:28:47;100169.91;;;3.50;80.83
12213;BME280;6169;44.158;22.788;2024-01-06T17:33:51;100162.44;;;3.58;79.79
12213;BME280;6169;44.158;22.788;2024-01-06T17:38:53;100163.72;;;3.36;79.48
12213;BME280;6169;44.158;22.788;2024-01-06T17:43:55;100148.41;;;3.23;79.72
12213;BME280;6169;44.158;22.788;2024-01-06T17:48:59;100141.63;;;3.07;80.22
12213;BME280;6169;44.158;22.788;2024-01-06T17:54:02;100157.13;;;3.25;79.00
12213;BME280;6169;44.158;22.788;2024-01-06T17:59:04;100153.00;;;3.16;79.21
12213;BME280;6169;44.158;22.788;2024-01-06T18:04:07;100144.28;;;3.01;79.54
12213;BME280;6169;44.158;22.788;2024-01-06T18:09:10;100125.84;;;3.17;79.39
12213;BME280;6169;44.158;22.788;2024-01-06T18:14:13;100129.41;;;2.85;79.08
12213;BME280;6169;44.158;22.788;2024-01-06T18:19:16;100146.53;;;2.57;80.01
12213;BME280;6169;44.158;22.788;2024-01-06T18:24:18;100141.69;;;2.32;80.75
12213;BME280;6169;44.158;22.788;2024-01-06T18:29:20;100130.72;;;2.27;79.11
12213;BME280;6169;44.158;22.788;2024-01-06T18:34:24;100129.25;;;2.18;80.29
12213;BME280;6169;44.158;22.788;2024-01-06T18:39:29;100118.81;;;2.43;78.34
12213;BME280;6169;44.158;22.788;2024-01-06T18:44:31;100114.88;;;2.46;79.20
12213;BME280;6169;44.158;22.788;2024-01-06T18:49:34;100109.59;;;2.04;78.38
12213;BME280;6169;44.158;22.788;2024-01-06T18:54:36;100106.56;;;1.66;80.28
12213;BME280;6169;44.158;22.788;2024-01-06T18:59:38;100085.59;;;1.96;79.22
12213;BME280;6169;44.158;22.788;2024-01-06T19:04:42;100091.13;;;1.88;79.47
12213;BME280;6169;44.158;22.788;2024-01-06T19:09:46;100102.50;;;1.83;78.01
12213;BME280;6169;44.158;22.788;2024-01-06T19:14:48;99906.22;;;0.84;78.23
12213;BME280;6169;44.158;22.788;2024-01-06T19:19:52;100047.22;;;2.09;78.63
12213;BME280;6169;44.158;22.788;2024-01-06T19:24:54;100064.31;;;1.95;78.07
12213;BME280;6169;44.158;22.788;2024-01-06T19:29:56;100018.63;;;1.75;77.36
12213;BME280;6169;44.158;22.788;2024-01-06T19:35:00;100051.91;;;1.87;76.99
12213;BME280;6169;44.158;22.788;2024-01-06T19:40:02;100045.25;;;1.70;78.07
12213;BME280;6169;44.158;22.788;2024-01-06T19:45:05;100043.16;;;1.65;77.18
12213;BME280;6169;44.158;22.788;2024-01-06T19:50:10;100048.13;;;1.68;79.01
12213;BME280;6169;44.158;22.788;2024-01-06T19:55:12;100031.06;;;1.89;77.51
12213;BME280;6169;44.158;22.788;2024-01-06T20:00:15;100012.69;;;1.86;77.62
12213;BME280;6169;44.158;22.788;2024-01-06T20:05:19;100012.88;;;1.91;78.13
12213;BME280;6169;44.158;22.788;2024-01-06T20:10:21;100000.31;;;2.05;77.84
12213;BME280;6169;44.158;22.788;2024-01-06T20:15:23;99984.41;;;2.10;78.15
12213;BME280;6169;44.158;22.788;2024-01-06T20:20:26;99976.34;;;2.10;77.57
12213;BME280;6169;44.158;22.788;2024-01-06T20:25:28;99975.16;;;2.46;77.20
12213;BME280;6169;44.158;22.788;2024-01-06T20:30:30;99982.13;;;2.07;77.16
12213;BME280;6169;44.158;22.788;2024-01-06T20:35:34;99986.88;;;2.25;77.55
12213;BME280;6169;44.158;22.788;2024-01-06T20:40:36;99989.13;;;1.88;78.45
12213;BME280;6169;44.158;22.788;2024-01-06T20:45:38;99985.25;;;2.24;77.65
12213;BME280;6169;44.158;22.788;2024-01-06T20:50:43;99908.59;;;1.75;77.09
12213;BME280;6169;44.158;22.788;2024-01-06T20:55:45;99978.41;;;2.08;77.20
12213;BME280;6169;44.158;22.788;2024-01-06T21:00:47;99966.22;;;2.12;77.15
12213;BME280;6169;44.158;22.788;2024-01-06T21:05:51;99948.44;;;1.91;78.67
12213;BME280;6169;44.158;22.788;2024-01-06T21:10:53;99951.53;;;1.81;78.71
12213;BME280;6169;44.158;22.788;2024-01-06T21:15:55;99943.69;;;1.86;78.45
12213;BME280;6169;44.158;22.788;2024-01-06T21:20:58;99934.38;;;1.69;78.70
12213;BME280;6169;44.158;22.788;2024-01-06T21:26:01;99940.56;;;1.76;77.49
12213;BME280;6169;44.158;22.788;2024-01-06T21:31:05;99926.53;;;1.68;76.64
12213;BME280;6169;44.158;22.788;2024-01-06T21:36:08;99912.28;;;1.67;79.08
12213;BME280;6169;44.158;22.788;2024-01-06T21:41:10;99902.19;;;1.89;77.68
12213;BME280;6169;44.158;22.788;2024-01-06T21:46:12;99906.91;;;1.60;75.53
12213;BME280;6169;44.158;22.788;2024-01-06T21:51:16;99920.00;;;1.22;77.52
12213;BME280;6169;44.158;22.788;2024-01-06T21:56:19;99928.69;;;1.31;79.39
12213;BME280;6169;44.158;22.788;2024-01-06T22:01:21;99908.25;;;1.23;81.06
12213;BME280;6169;44.158;22.788;2024-01-06T22:06:24;99892.94;;;1.10;79.28
12213;BME280;6169;44.158;22.788;2024-01-06T22:11:26;99889.69;;;1.28;80.25
12213;BME280;6169;44.158;22.788;2024-01-06T22:16:29;99882.88;;;1.19;79.40
12213;BME280;6169;44.158;22.788;2024-01-06T22:21:32;99873.81;;;1.27;79.70
12213;BME280;6169;44.158;22.788;2024-01-06T22:26:35;99873.19;;;1.18;78.65
12213;BME280;6169;44.158;22.788;2024-01-06T22:31:41;99883.91;;;1.18;78.69
12213;BME280;6169;44.158;22.788;2024-01-06T22:36:46;99884.59;;;1.47;78.34
12213;BME280;6169;44.158;22.788;2024-01-06T22:41:48;99871.00;;;1.61;76.83
12213;BME280;6169;44.158;22.788;2024-01-06T22:46:51;99875.28;;;1.36;78.56
12213;BME280;6169;44.158;22.788;2024-01-06T22:51:55;99860.84;;;1.37;78.94
12213;BME280;6169;44.158;22.788;2024-01-06T22:56:57;99848.50;;;1.69;77.64
12213;BME280;6169;44.158;22.788;2024-01-06T23:01:59;99849.88;;;1.32;79.67
12213;BME280;6169;44.158;22.788;2024-01-06T23:07:03;99840.03;;;1.59;79.20
12213;BME280;6169;44.158;22.788;2024-01-06T23:12:06;99838.38;;;1.71;80.17
12213;BME280;6169;44.158;22.788;2024-01-06T23:17:08;99818.16;;;1.62;80.39
12213;BME280;6169;44.158;22.788;2024-01-06T23:22:11;99797.50;;;1.69;80.74
12213;BME280;6169;44.158;22.788;2024-01-06T23:27:13;99606.06;;;0.64;78.67
12213;BME280;6169;44.158;22.788;2024-01-06T23:32:15;99804.72;;;1.89;80.27
12213;BME280;6169;44.158;22.788;2024-01-06T23:37:19;99778.31;;;1.72;79.87
12213;BME280;6169;44.158;22.788;2024-01-06T23:42:21;99784.47;;;1.93;80.89
12213;BME280;6169;44.158;22.788;2024-01-06T23:47:23;99789.66;;;1.94;80.44
12213;BME280;6169;44.158;22.788;2024-01-06T23:52:27;99777.47;;;1.92;80.82
12213;BME280;6169;44.158;22.788;2024-01-06T23:57:29;99730.19;;;1.77;80.67
